TimeMST,TemperatureF,Dew PointF,Humidity,Sea Level PressureIn,VisibilityMPH,Wind Direction,Wind SpeedMPH,Gust SpeedMPH,PrecipitationIn,Events,Conditions,WindDirDegrees,DateUTC
12:53 AM,39.0,19.0,45,30.14,10.0,SE,3.5,-,N/A,,Mostly Cloudy,130,2012-11-04 06:53:00
1:53 AM,39.0,19.0,45,30.13,10.0,ESE,4.6,-,N/A,,Scattered Clouds,110,2012-11-04 07:53:00
1:53 AM,37.0,19.0,48,30.14,10.0,Calm,Calm,-,N/A,,Clear,0,2012-11-04 08:53:00
2:53 AM,36.0,19.0,50,30.14,10.0,Calm,Calm,-,N/A,,Clear,0,2012-11-04 09:53:00
3:53 AM,35.1,19.0,52,30.14,10.0,ESE,4.6,-,N/A,,Clear,120,2012-11-04 10:53:00
4:53 AM,36.0,19.0,50,30.15,10.0,ESE,6.9,-,N/A,,Mostly Cloudy,120,2012-11-04 11:53:00
5:53 AM,36.0,19.9,52,30.17,10.0,Calm,Calm,-,N/A,,Overcast,0,2012-11-04 12:53:00
6:53 AM,37.0,18.0,46,30.21,10.0,NNW,4.6,-,N/A,,Overcast,340,2012-11-04 13:53:00
7:53 AM,37.9,19.0,47,30.24,10.0,Calm,Calm,-,N/A,,Overcast,0,2012-11-04 14:53:00
8:53 AM,39.9,19.0,43,30.26,10.0,WNW,3.5,-,N/A,,Overcast,290,2012-11-04 15:53:00
9:53 AM,43.0,19.9,40,30.25,10.0,Calm,Calm,-,N/A,,Overcast,0,2012-11-04 16:53:00
10:53 AM,45.0,19.9,37,30.28,10.0,SSE,3.5,-,N/A,,Overcast,150,2012-11-04 17:53:00
11:53 AM,46.9,21.9,37,30.28,10.0,East,3.5,-,N/A,,Overcast,80,2012-11-04 18:53:00
12:53 PM,51.1,21.9,32,30.25,10.0,South,3.5,-,N/A,,Mostly Cloudy,180,2012-11-04 19:53:00
1:53 PM,55.0,23.0,29,30.24,10.0,South,3.5,-,N/A,,Overcast,190,2012-11-04 20:53:00
2:53 PM,55.9,25.0,30,30.25,10.0,Calm,Calm,-,N/A,,Mostly Cloudy,0,2012-11-04 21:53:00
3:53 PM,57.9,26.1,30,30.25,10.0,Calm,Calm,-,N/A,,Overcast,0,2012-11-04 22:53:00
4:53 PM,55.9,30.9,39,30.25,10.0,NNW,9.2,-,N/A,,Mostly Cloudy,340,2012-11-04 23:53:00
5:53 PM,52.0,30.9,45,30.28,10.0,NNW,9.2,-,N/A,,Clear,340,2012-11-05 00:53:00
6:53 PM,50.0,30.9,48,30.29,10.0,SW,4.6,-,N/A,,Clear,230,2012-11-05 01:53:00
7:53 PM,43.0,28.9,58,30.31,10.0,WSW,11.5,-,N/A,,Clear,250,2012-11-05 02:53:00
8:53 PM,43.0,30.0,60,30.32,10.0,SW,6.9,-,N/A,,Mostly Cloudy,220,2012-11-05 03:53:00
9:53 PM,41.0,28.9,62,30.32,10.0,NW,4.6,-,N/A,,Overcast,310,2012-11-05 04:53:00
10:53 PM,42.1,28.9,60,30.30,10.0,SSE,3.5,-,N/A,,Overcast,150,2012-11-05 05:53:00